Huvudsida
METAR-TAF:

METAR-TAF

Flygplatser :

Pskov, Ryssland

latitud: 57-47-06N, longitud: 028-23-54E, höjd: 47 m

Aktuellt väderrapport

Denna rapport gjordes för 18 minuter sedan, klockan 19:00 UTC
Stilla vind
Temperatur 18°C
Fuktighet 100%
Tryck 1015 hPa
Sikt 10 km eller mer
Få moln på en höjd av 4500 ft

METAR: ULOO 141900Z 00000MPS 9999 FEW045 18/18 Q1015 R19/090046 NOSIG RMK QFE757

Tid: 22:18 (19:18 UTC)

Väderprognos

Denna rapport gjordes för 2 timmar och 24 minuter sedan, klockan 16:54 UTC
Prognos gäller från 14 kl. 18 UTC till 15 kl. 03 UTC
Vind 6 kt från väst/nordväst
Sikt: 6000 m
Spridda moln på en höjd av 2000 ft
Sannolikhet 40% :
Temporärt
från 14 kl. 23 UTC till 15 kl. 03 UTC
Sikt: 1000 m
grunt dimma, fuktdis,

TAF: ULOO 141654Z 1418/1503 30003MPS 6000 SCT020 PROB40 TEMPO 1423/1503 1000 MIFG BR

Aktuella väderrapporter och prognoser från 4000 flygplatser (METAR- och TAF-rapporter).

De tillgängliga stationerna syns som gula och röda prickar på kartan.

För musen över prickarna för att se namnen på stationerna.

Klicka sedan för att få väderrapporter och prognoser.

För att ändra kartan: Klicka på de gröna knapparna med ett svart kors på för att zooma in; den gröna knappen med ett streck på för att zooma ut; eller på de gröna pilarna för angränsande kartor.


METAR-TAF: